createdAt,value
2018-08-03T00:00:02.892Z,18.9
2018-08-03T00:15:03.228Z,18.8
2018-08-03T00:30:02.666Z,18.7
2018-08-03T00:45:02.998Z,18.6
2018-08-03T01:00:02.356Z,18.6
2018-08-03T01:15:02.657Z,18.4
2018-08-03T01:30:03.058Z,18.4
2018-08-03T01:45:02.444Z,18.3
2018-08-03T02:00:02.766Z,18.2
2018-08-03T02:15:03.095Z,18.2
2018-08-03T02:30:02.517Z,18.1
2018-08-03T02:45:02.888Z,18.1
2018-08-03T03:00:03.226Z,18.1
2018-08-03T03:15:02.583Z,18
2018-08-03T03:30:02.982Z,17.9
2018-08-03T03:45:02.300Z,17.9
2018-08-03T04:00:02.570Z,17.9
2018-08-03T04:15:02.891Z,17.8
2018-08-03T04:30:02.275Z,17.8
2018-08-03T04:45:02.579Z,17.8
2018-08-03T05:00:02.878Z,17.8
2018-08-03T05:15:03.226Z,17.7
2018-08-03T05:30:02.773Z,17.7
2018-08-03T05:45:03.072Z,17.7
2018-08-03T06:00:02.392Z,17.6
2018-08-03T06:15:02.695Z,17.6
2018-08-03T06:30:03.205Z,17.6
2018-08-03T06:45:02.522Z,17.6
2018-08-03T07:00:02.857Z,17.6
2018-08-03T07:15:03.177Z,17.7
2018-08-03T07:30:02.610Z,17.7
2018-08-03T07:45:02.922Z,17.7
2018-08-03T08:00:02.339Z,17.8
2018-08-03T08:15:02.651Z,17.8
2018-08-03T08:30:03.043Z,17.8
2018-08-03T08:45:02.660Z,17.8
2018-08-03T09:00:03.378Z,17.9
2018-08-03T09:15:02.908Z,17.9
2018-08-03T09:30:02.460Z,18
2018-08-03T09:45:02.885Z,18
2018-08-03T10:00:03.232Z,18.1
2018-08-03T10:15:02.545Z,18.2
2018-08-03T10:30:06.471Z,18.2
2018-08-03T10:45:08.596Z,18.3
2018-08-03T11:00:03.012Z,18.4
2018-08-03T11:15:02.352Z,18.5
2018-08-03T11:30:02.792Z,18.6
2018-08-03T11:45:03.139Z,18.6
2018-08-03T12:00:02.472Z,18.7
2018-08-03T12:15:02.794Z,18.8
2018-08-03T12:30:03.191Z,18.9
2018-08-03T12:45:02.598Z,18.9
2018-08-03T13:00:02.894Z,19
2018-08-03T13:15:03.204Z,19.1
2018-08-03T13:30:02.673Z,19.1
2018-08-03T13:45:02.991Z,19.2
2018-08-03T14:00:02.359Z,19.2
2018-08-03T14:15:02.657Z,19.2
2018-08-03T14:30:03.117Z,19.3
2018-08-03T14:45:02.467Z,19.3
2018-08-03T15:00:02.781Z,19.3
2018-08-03T15:15:03.088Z,19.4
2018-08-03T15:30:02.566Z,19.4
2018-08-03T15:45:02.881Z,19.4
2018-08-03T16:00:03.200Z,19.4
2018-08-03T16:15:02.629Z,19.4
2018-08-03T16:30:03.045Z,19.4
2018-08-03T16:45:02.360Z,19.4
2018-08-03T17:00:02.904Z,19.4
2018-08-03T17:15:03.203Z,19.3
2018-08-03T17:30:03.033Z,19.3
2018-08-03T17:45:02.542Z,19.3
2018-08-03T18:00:02.873Z,19.2
2018-08-03T18:15:03.241Z,19.2
2018-08-03T18:30:02.651Z,19.2
2018-08-03T18:45:02.971Z,19.1
2018-08-03T19:00:02.324Z,19.1
2018-08-03T19:15:02.664Z,19.1
2018-08-03T19:30:03.081Z,19.1
2018-08-03T19:45:02.444Z,19
2018-08-03T20:00:02.779Z,18.9
2018-08-03T20:15:03.096Z,18.9
2018-08-03T20:30:02.480Z,18.9
2018-08-03T20:45:02.783Z,18.8
2018-08-03T21:00:03.079Z,18.8
2018-08-03T21:15:02.461Z,18.8
2018-08-03T21:30:02.907Z,18.7
2018-08-03T21:45:03.237Z,18.7
2018-08-03T22:00:02.595Z,18.6
2018-08-03T22:15:02.860Z,18.6
2018-08-03T22:30:02.275Z,18.6
2018-08-03T22:45:02.566Z,18.5
2018-08-03T23:00:02.873Z,18.4
2018-08-03T23:15:03.205Z,18.4
2018-08-03T23:30:02.635Z,18.4
2018-08-03T23:45:02.948Z,18.3
